Albuquerque, NM (87110)

5:11 AM MDT on September 22, 2014 (GMT -0600)
Del Arroyo | Change Station
CLOSE
Current Station
Personal Weather Station
Location: Albuquerque, NM
Elevation: 5335 ft
Nearby Weather Stations

Elev 5335 ft 35.12 °N, 106.56 °W | Updated 4 minutes ago

Mostly Cloudy
Mostly Cloudy
67.5 °F
Feels Like 67.5 °F
N
4.0
Wind Variable Wind from SE
Gusts 5.0 mph

Today
High -- | Low -- °F
--% Chance of Precip.
Yesterday
High -- | Low -- °F
Precip. -- in
6:54 AM 7:03 PM
Waning Crescent, 3% visible
Pressure 30.07 in
Visibility 10.0 miles
Clouds Mostly Cloudy 11000 ft
Dew Point 56 °F
Humidity 66%
Rainfall 0.00 in
Snow Depth 0 in , 0 in , 1 in
UV 0 out of 12
Pollen 5.10 out of 12
Air Quality Not available.
Flu Activity Not available.
METAR KABQ 221052Z 10009KT 10SM BKN110 19/13 A3029 RMK AO2 SLP182 T01940128

More Conditions Fewer Conditions

Pressure 30.07 in
Visibility 10.0 miles
Clouds Mostly Cloudy 11000 ft
Dew Point 56 °F
Humidity 66%
Rainfall 0.00 in
Snow Depth 0 in , 0 in , 1 in
UV 0 out of 12
Pollen 5.10 out of 12
Air Quality Not available.
Flu Activity Not available.
METAR KABQ 221052Z 10009KT 10SM BKN110 19/13 A3029 RMK AO2 SLP182 T01940128

More Conditions Fewer Conditions

10-Day Weather Forecast

Almanac

Astronomy

Sep. 22, 2014 Rise Set
Actual Time 6:54 AM MDT 7:03 PM MDT
Civil Twilight 6:29 AM MDT 7:28 PM MDT
Nautical Twilight 5:59 AM MDT 7:57 PM MDT
Astronomical Twilight 5:29 AM MDT 8:27 PM MDT
Moon 5:27 AM MDT 6:10 PM MDT
Length of Visible Light 12h 59m
Length of Day
12h 08m
Tomorrow will be 2m 12s shorter.
Waning Crescent, 3% of the Moon is Illuminated
Today
Waning Crescent
Sep 24
New
Oct 1
First Quarter
Oct 8
Full
Oct 15
Last Quarter

Today's Extremes

State Highs State Lows

Community

WunderPhotos

Upload Photos

1,755,409 photos uploaded!

Nearby

Snow Depth

Station Depth Elevation
Gallegos Peak 0 in 9800 ft
Frisco Divide 0 in 8000 ft
Rice Park 0 in 8460 ft
North Costilla 1 in 10600 ft
Quemazon 1 in 9500 ft

Earthquake Activity

City Distance Mag. Time & Date
No recent earthquake activity has been reported nearby.
Minimum magnitude displayed is 2.5.

Coastal Water Temperatures

Place Temperature
No Stations Reporting

Nearby Weather Stations